sensor_id;sensor_type;location;lat;lon;timestamp;pressure;altitude;pressure_sealevel;temperature;humidity
12146;BME280;6136;47.032;15.398;2022-10-26T00:01:13;97980.81;;;8.63;nan
12146;BME280;6136;47.032;15.398;2022-10-26T00:03:43;97983.38;;;8.65;nan
12146;BME280;6136;47.032;15.398;2022-10-26T00:06:12;97986.09;;;8.63;nan
12146;BME280;6136;47.032;15.398;2022-10-26T00:08:40;97978.31;;;8.60;nan
12146;BME280;6136;47.032;15.398;2022-10-26T00:11:10;97981.31;;;8.52;nan
12146;BME280;6136;47.032;15.398;2022-10-26T00:13:39;97973.91;;;8.42;nan
12146;BME280;6136;47.032;15.398;2022-10-26T00:16:11;97987.75;;;8.47;nan
12146;BME280;6136;47.032;15.398;2022-10-26T00:18:40;97988.81;;;8.43;nan
12146;BME280;6136;47.032;15.398;2022-10-26T00:21:09;97985.41;;;8.41;nan
12146;BME280;6136;47.032;15.398;2022-10-26T00:23:38;97985.53;;;8.38;nan
12146;BME280;6136;47.032;15.398;2022-10-26T00:26:06;97982.97;;;8.36;nan
12146;BME280;6136;47.032;15.398;2022-10-26T00:28:35;97980.41;;;8.35;nan
12146;BME280;6136;47.032;15.398;2022-10-26T00:31:06;97978.81;;;8.31;nan
12146;BME280;6136;47.032;15.398;2022-10-26T00:33:35;97982.25;;;8.33;nan
12146;BME280;6136;47.032;15.398;2022-10-26T00:36:04;97982.38;;;8.30;nan
12146;BME280;6136;47.032;15.398;2022-10-26T00:38:35;97978.22;;;8.24;nan
12146;BME280;6136;47.032;15.398;2022-10-26T00:41:04;97983.44;;;8.26;nan
12146;BME280;6136;47.032;15.398;2022-10-26T00:43:37;97973.97;;;8.22;nan
12146;BME280;6136;47.032;15.398;2022-10-26T00:46:08;97975.88;;;8.18;nan
12146;BME280;6136;47.032;15.398;2022-10-26T00:48:43;97977.81;;;8.14;nan
12146;BME280;6136;47.032;15.398;2022-10-26T00:51:17;97975.06;;;8.16;nan
12146;BME280;6136;47.032;15.398;2022-10-26T00:53:47;97964.09;;;8.06;nan
12146;BME280;6136;47.032;15.398;2022-10-26T00:56:16;97965.94;;;8.04;nan
12146;BME280;6136;47.032;15.398;2022-10-26T00:58:45;97967.59;;;8.07;nan
12146;BME280;6136;47.032;15.398;2022-10-26T01:01:14;97969.63;;;8.00;nan
12146;BME280;6136;47.032;15.398;2022-10-26T01:03:44;97967.66;;;8.05;nan
12146;BME280;6136;47.032;15.398;2022-10-26T01:06:14;97957.38;;;7.99;nan
12146;BME280;6136;47.032;15.398;2022-10-26T01:08:43;97977.19;;;8.08;nan
12146;BME280;6136;47.032;15.398;2022-10-26T01:11:11;97961.81;;;7.99;nan
12146;BME280;6136;47.032;15.398;2022-10-26T01:13:41;97973.22;;;7.99;nan
12146;BME280;6136;47.032;15.398;2022-10-26T01:16:22;97960.16;;;7.96;nan
12146;BME280;6136;47.032;15.398;2022-10-26T01:19:05;97972.16;;;8.03;nan
12146;BME280;6136;47.032;15.398;2022-10-26T01:21:47;97963.72;;;7.95;nan
12146;BME280;6136;47.032;15.398;2022-10-26T01:24:48;97975.34;;;7.91;nan
12146;BME280;6136;47.032;15.398;2022-10-26T01:27:27;97965.13;;;7.84;nan
12146;BME280;6136;47.032;15.398;2022-10-26T01:30:16;97962.56;;;7.82;nan
12146;BME280;6136;47.032;15.398;2022-10-26T01:32:51;97959.13;;;7.80;nan
12146;BME280;6136;47.032;15.398;2022-10-26T01:35:27;97952.28;;;7.76;nan
12146;BME280;6136;47.032;15.398;2022-10-26T01:38:00;97959.47;;;7.72;nan
12146;BME280;6136;47.032;15.398;2022-10-26T01:40:35;97953.34;;;7.72;nan
12146;BME280;6136;47.032;15.398;2022-10-26T01:43:07;97943.06;;;7.66;nan
12146;BME280;6136;47.032;15.398;2022-10-26T01:45:41;97965.31;;;7.79;nan
12146;BME280;6136;47.032;15.398;2022-10-26T01:48:15;97955.22;;;7.70;nan
12146;BME280;6136;47.032;15.398;2022-10-26T01:50:46;97944.78;;;7.67;nan
12146;BME280;6136;47.032;15.398;2022-10-26T01:53:18;97948.22;;;7.69;nan
12146;BME280;6136;47.032;15.398;2022-10-26T01:55:48;97950.91;;;7.67;nan
12146;BME280;6136;47.032;15.398;2022-10-26T02:01:36;97939.00;;;7.59;nan
12146;BME280;6136;47.032;15.398;2022-10-26T02:04:17;97933.72;;;7.59;nan
12146;BME280;6136;47.032;15.398;2022-10-26T02:06:55;97920.81;;;7.53;nan
12146;BME280;6136;47.032;15.398;2022-10-26T02:09:34;97927.13;;;7.49;nan
12146;BME280;6136;47.032;15.398;2022-10-26T02:12:11;97928.78;;;7.51;nan
12146;BME280;6136;47.032;15.398;2022-10-26T02:14:47;97936.75;;;7.50;nan
12146;BME280;6136;47.032;15.398;2022-10-26T02:17:24;97937.59;;;7.50;nan
12146;BME280;6136;47.032;15.398;2022-10-26T02:19:59;97917.66;;;7.45;nan
12146;BME280;6136;47.032;15.398;2022-10-26T02:22:32;97932.34;;;7.50;nan
12146;BME280;6136;47.032;15.398;2022-10-26T02:25:06;97920.22;;;7.46;nan
12146;BME280;6136;47.032;15.398;2022-10-26T02:27:38;97921.19;;;7.44;nan
12146;BME280;6136;47.032;15.398;2022-10-26T02:30:08;97931.91;;;7.40;nan
12146;BME280;6136;47.032;15.398;2022-10-26T02:32:44;97930.88;;;7.43;nan
12146;BME280;6136;47.032;15.398;2022-10-26T02:35:16;97916.31;;;7.34;nan
12146;BME280;6136;47.032;15.398;2022-10-26T02:37:47;97922.19;;;7.41;nan
12146;BME280;6136;47.032;15.398;2022-10-26T02:40:18;97910.94;;;7.37;nan
12146;BME280;6136;47.032;15.398;2022-10-26T02:42:49;97923.59;;;7.29;nan
12146;BME280;6136;47.032;15.398;2022-10-26T02:45:21;97908.16;;;7.20;nan
12146;BME280;6136;47.032;15.398;2022-10-26T02:47:53;97927.13;;;7.28;nan
12146;BME280;6136;47.032;15.398;2022-10-26T02:50:26;97921.06;;;7.26;nan
12146;BME280;6136;47.032;15.398;2022-10-26T02:53:01;97916.88;;;7.22;nan
12146;BME280;6136;47.032;15.398;2022-10-26T02:55:37;97900.31;;;7.19;nan
12146;BME280;6136;47.032;15.398;2022-10-26T02:58:11;97917.09;;;7.18;nan
12146;BME280;6136;47.032;15.398;2022-10-26T03:00:42;97913.72;;;7.14;nan
12146;BME280;6136;47.032;15.398;2022-10-26T03:03:13;97920.56;;;7.18;nan
12146;BME280;6136;47.032;15.398;2022-10-26T03:05:42;97926.88;;;7.14;nan
12146;BME280;6136;47.032;15.398;2022-10-26T03:08:10;97922.53;;;7.13;nan
12146;BME280;6136;47.032;15.398;2022-10-26T03:10:41;97920.16;;;7.07;nan
12146;BME280;6136;47.032;15.398;2022-10-26T03:13:10;97931.63;;;7.06;nan
12146;BME280;6136;47.032;15.398;2022-10-26T03:15:39;97935.06;;;7.08;nan
12146;BME280;6136;47.032;15.398;2022-10-26T03:18:08;97938.34;;;7.13;nan
12146;BME280;6136;47.032;15.398;2022-10-26T03:20:37;97920.69;;;7.15;nan
12146;BME280;6136;47.032;15.398;2022-10-26T03:23:06;97930.97;;;7.21;nan
12146;BME280;6136;47.032;15.398;2022-10-26T03:25:34;97938.06;;;7.19;nan
12146;BME280;6136;47.032;15.398;2022-10-26T03:28:03;97927.69;;;7.16;nan
12146;BME280;6136;47.032;15.398;2022-10-26T03:30:32;97934.34;;;7.25;nan
12146;BME280;6136;47.032;15.398;2022-10-26T03:33:00;97941.91;;;7.32;nan
12146;BME280;6136;47.032;15.398;2022-10-26T03:35:28;97942.50;;;7.39;nan
12146;BME280;6136;47.032;15.398;2022-10-26T03:37:58;97938.94;;;7.40;nan
12146;BME280;6136;47.032;15.398;2022-10-26T03:40:26;97940.31;;;7.49;nan
12146;BME280;6136;47.032;15.398;2022-10-26T03:42:54;97934.13;;;7.50;nan
12146;BME280;6136;47.032;15.398;2022-10-26T03:45:22;97934.00;;;7.53;nan
12146;BME280;6136;47.032;15.398;2022-10-26T03:47:51;97934.63;;;7.58;nan
12146;BME280;6136;47.032;15.398;2022-10-26T03:50:20;97923.50;;;7.51;nan
12146;BME280;6136;47.032;15.398;2022-10-26T03:52:49;97929.94;;;7.64;nan
12146;BME280;6136;47.032;15.398;2022-10-26T03:55:19;97921.03;;;7.67;nan
12146;BME280;6136;47.032;15.398;2022-10-26T03:57:47;97923.56;;;7.70;nan
12146;BME280;6136;47.032;15.398;2022-10-26T04:00:16;97919.03;;;7.72;nan
12146;BME280;6136;47.032;15.398;2022-10-26T04:02:52;97926.63;;;7.79;nan
12146;BME280;6136;47.032;15.398;2022-10-26T04:05:21;97921.28;;;7.81;nan
12146;BME280;6136;47.032;15.398;2022-10-26T04:07:53;97923.78;;;7.84;nan
12146;BME280;6136;47.032;15.398;2022-10-26T04:10:24;97902.00;;;7.79;nan
12146;BME280;6136;47.032;15.398;2022-10-26T04:12:54;97892.31;;;7.79;nan
12146;BME280;6136;47.032;15.398;2022-10-26T04:15:23;97913.06;;;7.87;nan
12146;BME280;6136;47.032;15.398;2022-10-26T04:17:54;97913.88;;;7.89;nan
12146;BME280;6136;47.032;15.398;2022-10-26T04:20:23;97900.03;;;7.84;nan
12146;BME280;6136;47.032;15.398;2022-10-26T04:22:59;97912.16;;;7.88;nan
12146;BME280;6136;47.032;15.398;2022-10-26T04:25:29;97908.88;;;7.83;nan
12146;BME280;6136;47.032;15.398;2022-10-26T04:27:58;97924.13;;;7.95;nan
12146;BME280;6136;47.032;15.398;2022-10-26T04:30:27;97909.31;;;7.93;nan
12146;BME280;6136;47.032;15.398;2022-10-26T04:32:55;97903.94;;;7.94;nan
12146;BME280;6136;47.032;15.398;2022-10-26T04:35:24;97909.66;;;8.04;nan
12146;BME280;6136;47.032;15.398;2022-10-26T04:37:56;97898.38;;;8.00;nan
12146;BME280;6136;47.032;15.398;2022-10-26T04:40:24;97906.28;;;8.00;nan
12146;BME280;6136;47.032;15.398;2022-10-26T04:42:54;97894.06;;;7.99;nan
12146;BME280;6136;47.032;15.398;2022-10-26T04:45:22;97900.25;;;7.98;nan
12146;BME280;6136;47.032;15.398;2022-10-26T04:47:59;97910.28;;;8.09;nan
12146;BME280;6136;47.032;15.398;2022-10-26T04:50:27;97901.38;;;8.11;nan
12146;BME280;6136;47.032;15.398;2022-10-26T04:52:56;97904.59;;;8.18;nan
12146;BME280;6136;47.032;15.398;2022-10-26T04:55:24;97908.72;;;8.24;nan
12146;BME280;6136;47.032;15.398;2022-10-26T04:57:54;97888.06;;;8.14;nan
12146;BME280;6136;47.032;15.398;2022-10-26T05:00:26;97914.00;;;8.24;nan
12146;BME280;6136;47.032;15.398;2022-10-26T05:02:58;97906.31;;;8.19;nan
12146;BME280;6136;47.032;15.398;2022-10-26T05:05:27;97908.03;;;8.39;nan
12146;BME280;6136;47.032;15.398;2022-10-26T05:07:56;97904.88;;;8.31;nan
12146;BME280;6136;47.032;15.398;2022-10-26T05:10:25;97896.38;;;8.24;nan
12146;BME280;6136;47.032;15.398;2022-10-26T05:12:56;97910.16;;;8.31;nan
12146;BME280;6136;47.032;15.398;2022-10-26T05:15:26;97918.88;;;8.33;nan
12146;BME280;6136;47.032;15.398;2022-10-26T05:17:55;97906.63;;;8.30;nan
12146;BME280;6136;47.032;15.398;2022-10-26T05:20:25;97914.31;;;8.36;nan
12146;BME280;6136;47.032;15.398;2022-10-26T05:22:56;97925.59;;;8.40;nan
12146;BME280;6136;47.032;15.398;2022-10-26T05:25:24;97921.22;;;8.39;nan
12146;BME280;6136;47.032;15.398;2022-10-26T05:27:57;97921.72;;;8.47;nan
12146;BME280;6136;47.032;15.398;2022-10-26T05:30:26;97921.94;;;8.42;nan
12146;BME280;6136;47.032;15.398;2022-10-26T05:32:55;97919.25;;;8.44;nan
12146;BME280;6136;47.032;15.398;2022-10-26T05:35:23;97919.88;;;8.49;nan
12146;BME280;6136;47.032;15.398;2022-10-26T05:37:52;97909.59;;;8.43;nan
12146;BME280;6136;47.032;15.398;2022-10-26T05:40:21;97918.16;;;8.48;nan
12146;BME280;6136;47.032;15.398;2022-10-26T05:42:50;97905.88;;;8.47;nan
12146;BME280;6136;47.032;15.398;2022-10-26T05:45:20;97922.38;;;8.52;nan
12146;BME280;6136;47.032;15.398;2022-10-26T05:47:48;97924.00;;;8.54;nan
12146;BME280;6136;47.032;15.398;2022-10-26T05:50:16;97918.94;;;8.50;nan
12146;BME280;6136;47.032;15.398;2022-10-26T05:52:46;97917.84;;;8.54;nan
12146;BME280;6136;47.032;15.398;2022-10-26T05:55:16;97918.63;;;8.56;nan
12146;BME280;6136;47.032;15.398;2022-10-26T05:57:45;97928.03;;;8.62;nan
12146;BME280;6136;47.032;15.398;2022-10-26T06:00:16;97933.25;;;8.63;nan
12146;BME280;6136;47.032;15.398;2022-10-26T06:02:55;97913.84;;;8.64;nan
12146;BME280;6136;47.032;15.398;2022-10-26T06:05:32;97930.38;;;8.68;nan
12146;BME280;6136;47.032;15.398;2022-10-26T06:08:07;97907.56;;;8.67;nan
12146;BME280;6136;47.032;15.398;2022-10-26T06:10:37;97922.06;;;8.75;nan
12146;BME280;6136;47.032;15.398;2022-10-26T06:13:06;97924.44;;;8.81;nan
12146;BME280;6136;47.032;15.398;2022-10-26T06:15:41;97922.34;;;8.88;nan
12146;BME280;6136;47.032;15.398;2022-10-26T06:18:20;97932.44;;;8.97;nan
12146;BME280;6136;47.032;15.398;2022-10-26T06:21:07;97934.69;;;9.05;nan
12146;BME280;6136;47.032;15.398;2022-10-26T06:23:45;97937.81;;;9.13;nan
12146;BME280;6136;47.032;15.398;2022-10-26T06:26:25;97932.38;;;9.16;nan
12146;BME280;6136;47.032;15.398;2022-10-26T06:29:04;97940.94;;;9.21;nan
12146;BME280;6136;47.032;15.398;2022-10-26T06:31:37;97938.16;;;9.24;nan
12146;BME280;6136;47.032;15.398;2022-10-26T06:34:09;97950.19;;;9.29;nan
12146;BME280;6136;47.032;15.398;2022-10-26T06:36:39;97946.69;;;9.29;nan
12146;BME280;6136;47.032;15.398;2022-10-26T06:39:10;97944.44;;;9.39;nan
12146;BME280;6136;47.032;15.398;2022-10-26T06:41:39;97945.13;;;9.42;nan
12146;BME280;6136;47.032;15.398;2022-10-26T06:44:11;97950.94;;;9.49;nan
12146;BME280;6136;47.032;15.398;2022-10-26T06:46:49;97945.66;;;9.49;nan
12146;BME280;6136;47.032;15.398;2022-10-26T06:49:24;97959.81;;;9.65;nan
12146;BME280;6136;47.032;15.398;2022-10-26T06:51:57;97938.88;;;9.60;nan
12146;BME280;6136;47.032;15.398;2022-10-26T06:54:35;97947.22;;;9.70;nan
12146;BME280;6136;47.032;15.398;2022-10-26T06:57:13;97942.06;;;9.67;nan
12146;BME280;6136;47.032;15.398;2022-10-26T06:59:45;97944.91;;;9.80;nan
12146;BME280;6136;47.032;15.398;2022-10-26T07:02:16;97966.22;;;9.94;nan
12146;BME280;6136;47.032;15.398;2022-10-26T07:04:46;97969.47;;;9.99;nan
12146;BME280;6136;47.032;15.398;2022-10-26T07:07:17;97968.09;;;9.92;nan
12146;BME280;6136;47.032;15.398;2022-10-26T07:09:47;97969.22;;;10.03;nan
12146;BME280;6136;47.032;15.398;2022-10-26T07:12:15;97980.34;;;10.27;nan
12146;BME280;6136;47.032;15.398;2022-10-26T07:14:43;97973.09;;;10.13;nan
12146;BME280;6136;47.032;15.398;2022-10-26T07:17:12;97968.56;;;10.16;nan
12146;BME280;6136;47.032;15.398;2022-10-26T07:19:40;97956.50;;;10.10;nan
12146;BME280;6136;47.032;15.398;2022-10-26T07:22:12;97972.91;;;10.17;nan
12146;BME280;6136;47.032;15.398;2022-10-26T07:24:40;97994.06;;;10.18;nan
12146;BME280;6136;47.032;15.398;2022-10-26T07:27:08;97980.19;;;10.13;nan
12146;BME280;6136;47.032;15.398;2022-10-26T07:29:36;97971.81;;;10.05;nan
12146;BME280;6136;47.032;15.398;2022-10-26T07:32:05;97976.75;;;10.11;nan
12146;BME280;6136;47.032;15.398;2022-10-26T07:34:33;97971.94;;;10.19;nan
12146;BME280;6136;47.032;15.398;2022-10-26T07:37:02;97976.13;;;10.39;nan
12146;BME280;6136;47.032;15.398;2022-10-26T07:39:31;97976.84;;;10.42;nan
12146;BME280;6136;47.032;15.398;2022-10-26T07:42:00;97985.31;;;10.49;nan
12146;BME280;6136;47.032;15.398;2022-10-26T07:44:28;97977.34;;;10.49;nan
12146;BME280;6136;47.032;15.398;2022-10-26T07:46:56;97990.69;;;10.63;nan
12146;BME280;6136;47.032;15.398;2022-10-26T07:49:25;97970.78;;;10.72;nan
12146;BME280;6136;47.032;15.398;2022-10-26T07:51:53;97983.84;;;10.75;nan
12146;BME280;6136;47.032;15.398;2022-10-26T07:54:22;97977.38;;;10.80;nan
12146;BME280;6136;47.032;15.398;2022-10-26T07:56:51;97985.53;;;10.92;nan
12146;BME280;6136;47.032;15.398;2022-10-26T07:59:20;97997.50;;;10.99;nan
12146;BME280;6136;47.032;15.398;2022-10-26T08:01:48;97989.63;;;11.13;nan
12146;BME280;6136;47.032;15.398;2022-10-26T08:04:17;97994.31;;;11.23;nan
12146;BME280;6136;47.032;15.398;2022-10-26T08:06:45;97989.88;;;11.24;nan
12146;BME280;6136;47.032;15.398;2022-10-26T08:09:14;97994.53;;;11.35;nan
12146;BME280;6136;47.032;15.398;2022-10-26T08:11:42;97986.34;;;11.23;nan
12146;BME280;6136;47.032;15.398;2022-10-26T08:14:12;97991.66;;;11.23;nan
12146;BME280;6136;47.032;15.398;2022-10-26T08:16:41;97999.50;;;11.41;nan
12146;BME280;6136;47.032;15.398;2022-10-26T08:19:09;97997.44;;;11.46;nan
12146;BME280;6136;47.032;15.398;2022-10-26T08:21:37;98012.69;;;11.56;nan
12146;BME280;6136;47.032;15.398;2022-10-26T08:24:07;98005.31;;;11.77;nan
12146;BME280;6136;47.032;15.398;2022-10-26T08:26:35;98006.75;;;11.83;nan
12146;BME280;6136;47.032;15.398;2022-10-26T08:29:04;98008.38;;;11.85;nan
12146;BME280;6136;47.032;15.398;2022-10-26T08:31:33;98015.59;;;11.97;nan
12146;BME280;6136;47.032;15.398;2022-10-26T08:34:02;98010.66;;;12.34;nan
12146;BME280;6136;47.032;15.398;2022-10-26T08:36:30;98002.69;;;12.48;nan
12146;BME280;6136;47.032;15.398;2022-10-26T08:38:58;98010.38;;;12.38;nan
12146;BME280;6136;47.032;15.398;2022-10-26T08:41:33;98003.63;;;12.33;nan
12146;BME280;6136;47.032;15.398;2022-10-26T08:44:21;97995.66;;;12.33;nan
12146;BME280;6136;47.032;15.398;2022-10-26T08:46:57;98005.63;;;12.58;nan
12146;BME280;6136;47.032;15.398;2022-10-26T08:49:30;97997.69;;;12.84;nan
12146;BME280;6136;47.032;15.398;2022-10-26T08:52:00;97997.19;;;12.92;nan
12146;BME280;6136;47.032;15.398;2022-10-26T08:54:34;98001.06;;;13.28;nan
12146;BME280;6136;47.032;15.398;2022-10-26T08:57:12;98006.81;;;13.48;nan
12146;BME280;6136;47.032;15.398;2022-10-26T08:59:46;98004.00;;;14.02;nan
12146;BME280;6136;47.032;15.398;2022-10-26T09:02:17;98005.47;;;14.31;nan
12146;BME280;6136;47.032;15.398;2022-10-26T09:04:46;97996.09;;;14.64;nan
12146;BME280;6136;47.032;15.398;2022-10-26T09:07:40;97985.22;;;14.54;nan
12146;BME280;6136;47.032;15.398;2022-10-26T09:10:23;97998.44;;;14.56;nan
12146;BME280;6136;47.032;15.398;2022-10-26T09:13:03;98002.63;;;14.22;nan
12146;BME280;6136;47.032;15.398;2022-10-26T09:15:47;98002.09;;;14.04;nan
12146;BME280;6136;47.032;15.398;2022-10-26T09:18:29;98004.22;;;13.99;nan
12146;BME280;6136;47.032;15.398;2022-10-26T09:21:11;98005.28;;;13.96;nan
12146;BME280;6136;47.032;15.398;2022-10-26T09:23:52;98015.31;;;13.93;nan
12146;BME280;6136;47.032;15.398;2022-10-26T09:26:28;98021.50;;;14.06;nan
12146;BME280;6136;47.032;15.398;2022-10-26T09:29:02;98019.16;;;14.14;nan
12146;BME280;6136;47.032;15.398;2022-10-26T09:31:37;98017.00;;;14.19;nan
12146;BME280;6136;47.032;15.398;2022-10-26T09:34:18;98034.84;;;14.44;nan
12146;BME280;6136;47.032;15.398;2022-10-26T09:36:52;98034.28;;;14.64;nan
12146;BME280;6136;47.032;15.398;2022-10-26T09:39:27;98022.72;;;14.76;nan
12146;BME280;6136;47.032;15.398;2022-10-26T09:42:00;98030.63;;;15.14;nan
12146;BME280;6136;47.032;15.398;2022-10-26T09:44:34;98033.06;;;15.54;nan
12146;BME280;6136;47.032;15.398;2022-10-26T09:47:11;98041.69;;;15.58;nan
12146;BME280;6136;47.032;15.398;2022-10-26T09:49:44;98056.56;;;15.73;nan
12146;BME280;6136;47.032;15.398;2022-10-26T09:52:14;98052.41;;;15.93;nan
12146;BME280;6136;47.032;15.398;2022-10-26T09:54:43;98050.72;;;16.03;nan
12146;BME280;6136;47.032;15.398;2022-10-26T09:57:14;98053.44;;;16.14;nan
12146;BME280;6136;47.032;15.398;2022-10-26T09:59:44;98057.34;;;16.21;nan
12146;BME280;6136;47.032;15.398;2022-10-26T10:02:33;98050.81;;;16.36;nan
12146;BME280;6136;47.032;15.398;2022-10-26T10:05:20;98064.66;;;16.41;nan
12146;BME280;6136;47.032;15.398;2022-10-26T10:08:14;98057.44;;;16.88;nan
12146;BME280;6136;47.032;15.398;2022-10-26T10:10:57;98048.44;;;17.43;nan
12146;BME280;6136;47.032;15.398;2022-10-26T10:13:28;98045.75;;;17.86;nan
12146;BME280;6136;47.032;15.398;2022-10-26T10:16:04;98044.72;;;18.40;nan
12146;BME280;6136;47.032;15.398;2022-10-26T10:18:34;98050.31;;;19.97;nan
12146;BME280;6136;47.032;15.398;2022-10-26T10:21:05;98043.25;;;20.81;nan
12146;BME280;6136;47.032;15.398;2022-10-26T10:23:36;98047.56;;;21.91;nan
12146;BME280;6136;47.032;15.398;2022-10-26T10:26:06;98040.00;;;22.30;nan
12146;BME280;6136;47.032;15.398;2022-10-26T10:28:37;98033.66;;;21.86;nan
12146;BME280;6136;47.032;15.398;2022-10-26T10:31:18;98035.56;;;22.03;nan
12146;BME280;6136;47.032;15.398;2022-10-26T10:33:49;98029.94;;;22.15;nan
12146;BME280;6136;47.032;15.398;2022-10-26T10:36:24;98029.31;;;22.03;nan
12146;BME280;6136;47.032;15.398;2022-10-26T10:38:55;98024.50;;;22.58;nan
12146;BME280;6136;47.032;15.398;2022-10-26T10:41:25;98012.59;;;23.03;nan
12146;BME280;6136;47.032;15.398;2022-10-26T10:44:02;98022.91;;;23.07;nan
12146;BME280;6136;47.032;15.398;2022-10-26T10:46:34;98031.69;;;23.01;nan
12146;BME280;6136;47.032;15.398;2022-10-26T10:49:05;98026.38;;;22.92;nan
12146;BME280;6136;47.032;15.398;2022-10-26T10:51:39;98036.25;;;22.05;nan
12146;BME280;6136;47.032;15.398;2022-10-26T10:54:19;98030.66;;;21.89;nan
12146;BME280;6136;47.032;15.398;2022-10-26T10:56:51;98022.78;;;22.57;nan
12146;BME280;6136;47.032;15.398;2022-10-26T10:59:30;98020.97;;;22.92;nan
12146;BME280;6136;47.032;15.398;2022-10-26T11:05:18;98024.13;;;23.55;nan
12146;BME280;6136;47.032;15.398;2022-10-26T11:07:55;98016.22;;;23.94;nan
12146;BME280;6136;47.032;15.398;2022-10-26T11:10:27;98024.19;;;24.04;nan
12146;BME280;6136;47.032;15.398;2022-10-26T11:12:58;98017.06;;;23.86;nan
12146;BME280;6136;47.032;15.398;2022-10-26T11:15:30;98020.00;;;23.43;nan
12146;BME280;6136;47.032;15.398;2022-10-26T11:18:03;98014.22;;;22.88;nan
12146;BME280;6136;47.032;15.398;2022-10-26T11:20:36;98023.38;;;22.43;nan
12146;BME280;6136;47.032;15.398;2022-10-26T11:23:11;98020.03;;;22.49;nan
12146;BME280;6136;47.032;15.398;2022-10-26T11:25:45;98005.41;;;22.08;nan
12146;BME280;6136;47.032;15.398;2022-10-26T11:28:20;98003.44;;;21.65;nan
12146;BME280;6136;47.032;15.398;2022-10-26T11:30:54;98016.19;;;21.00;nan
12146;BME280;6136;47.032;15.398;2022-10-26T11:33:26;98017.69;;;20.48;nan
12146;BME280;6136;47.032;15.398;2022-10-26T11:35:57;98010.09;;;20.14;nan
12146;BME280;6136;47.032;15.398;2022-10-26T11:38:34;98008.81;;;20.75;nan
12146;BME280;6136;47.032;15.398;2022-10-26T11:41:24;98010.63;;;21.56;nan
12146;BME280;6136;47.032;15.398;2022-10-26T11:43:55;98023.19;;;21.20;nan
12146;BME280;6136;47.032;15.398;2022-10-26T11:46:29;98019.25;;;20.50;nan
12146;BME280;6136;47.032;15.398;2022-10-26T11:49:04;98025.94;;;20.37;nan
12146;BME280;6136;47.032;15.398;2022-10-26T11:51:40;98026.72;;;20.93;nan
12146;BME280;6136;47.032;15.398;2022-10-26T11:54:14;98027.22;;;22.40;nan
12146;BME280;6136;47.032;15.398;2022-10-26T11:56:46;98021.69;;;22.42;nan
12146;BME280;6136;47.032;15.398;2022-10-26T11:59:18;98025.38;;;21.97;nan
12146;BME280;6136;47.032;15.398;2022-10-26T12:01:49;98015.84;;;23.14;nan
12146;BME280;6136;47.032;15.398;2022-10-26T12:04:20;98022.66;;;23.93;nan
12146;BME280;6136;47.032;15.398;2022-10-26T12:06:51;98005.91;;;25.48;nan
12146;BME280;6136;47.032;15.398;2022-10-26T12:09:26;98026.69;;;24.78;nan
12146;BME280;6136;47.032;15.398;2022-10-26T12:12:04;98029.09;;;23.26;nan
12146;BME280;6136;47.032;15.398;2022-10-26T12:14:38;98017.66;;;23.06;nan
12146;BME280;6136;47.032;15.398;2022-10-26T12:17:13;98024.78;;;22.55;nan
12146;BME280;6136;47.032;15.398;2022-10-26T12:19:46;98012.88;;;21.96;nan
12146;BME280;6136;47.032;15.398;2022-10-26T12:22:17;98025.22;;;21.09;nan
12146;BME280;6136;47.032;15.398;2022-10-26T12:25:05;98022.22;;;20.47;nan
12146;BME280;6136;47.032;15.398;2022-10-26T12:27:53;98032.19;;;21.11;nan
12146;BME280;6136;47.032;15.398;2022-10-26T12:30:25;98036.13;;;21.44;nan
12146;BME280;6136;47.032;15.398;2022-10-26T12:32:55;98029.97;;;21.52;nan
12146;BME280;6136;47.032;15.398;2022-10-26T12:35:33;98038.31;;;22.12;nan
12146;BME280;6136;47.032;15.398;2022-10-26T12:41:24;98023.06;;;22.02;nan
12146;BME280;6136;47.032;15.398;2022-10-26T12:44:30;98023.69;;;22.14;nan
12146;BME280;6136;47.032;15.398;2022-10-26T12:46:57;98025.81;;;21.75;nan
12146;BME280;6136;47.032;15.398;2022-10-26T12:52:43;98030.19;;;20.76;nan
12146;BME280;6136;47.032;15.398;2022-10-26T12:55:19;98016.53;;;20.50;nan
12146;BME280;6136;47.032;15.398;2022-10-26T12:58:01;98027.31;;;20.31;nan
12146;BME280;6136;47.032;15.398;2022-10-26T13:00:32;98021.13;;;20.21;nan
12146;BME280;6136;47.032;15.398;2022-10-26T13:03:15;98020.22;;;20.49;nan
12146;BME280;6136;47.032;15.398;2022-10-26T13:06:17;98027.06;;;20.34;nan
12146;BME280;6136;47.032;15.398;2022-10-26T13:08:53;98030.31;;;20.38;nan
12146;BME280;6136;47.032;15.398;2022-10-26T13:11:28;98032.50;;;20.62;nan
12146;BME280;6136;47.032;15.398;2022-10-26T13:14:01;98024.50;;;20.23;nan
12146;BME280;6136;47.032;15.398;2022-10-26T13:16:30;98034.72;;;20.10;nan
12146;BME280;6136;47.032;15.398;2022-10-26T13:18:59;98027.03;;;20.25;nan
12146;BME280;6136;47.032;15.398;2022-10-26T13:21:28;98025.19;;;20.25;nan
12146;BME280;6136;47.032;15.398;2022-10-26T13:23:57;98040.22;;;20.08;nan
12146;BME280;6136;47.032;15.398;2022-10-26T13:26:31;98044.06;;;19.87;nan
12146;BME280;6136;47.032;15.398;2022-10-26T13:29:02;98050.59;;;19.74;nan
12146;BME280;6136;47.032;15.398;2022-10-26T13:31:52;98049.31;;;19.59;nan
12146;BME280;6136;47.032;15.398;2022-10-26T13:34:24;98039.25;;;19.52;nan
12146;BME280;6136;47.032;15.398;2022-10-26T13:37:02;98049.38;;;19.38;nan
12146;BME280;6136;47.032;15.398;2022-10-26T13:39:35;98049.75;;;19.15;nan
12146;BME280;6136;47.032;15.398;2022-10-26T13:42:06;98042.50;;;18.96;nan
12146;BME280;6136;47.032;15.398;2022-10-26T13:44:40;98047.81;;;18.86;nan
12146;BME280;6136;47.032;15.398;2022-10-26T13:47:10;98061.78;;;18.80;nan
12146;BME280;6136;47.032;15.398;2022-10-26T13:49:41;98047.75;;;18.67;nan
12146;BME280;6136;47.032;15.398;2022-10-26T13:52:14;98054.47;;;18.61;nan
12146;BME280;6136;47.032;15.398;2022-10-26T13:54:46;98051.91;;;18.60;nan
12146;BME280;6136;47.032;15.398;2022-10-26T13:57:19;98068.03;;;18.60;nan
12146;BME280;6136;47.032;15.398;2022-10-26T13:59:51;98075.94;;;18.61;nan
12146;BME280;6136;47.032;15.398;2022-10-26T14:02:23;98064.41;;;18.50;nan
12146;BME280;6136;47.032;15.398;2022-10-26T14:04:57;98076.97;;;18.49;nan
12146;BME280;6136;47.032;15.398;2022-10-26T14:07:33;98072.88;;;18.66;nan
12146;BME280;6136;47.032;15.398;2022-10-26T14:10:03;98080.03;;;18.86;nan